Time;durP1;ratioP1;P1;durP2;ratioP2;P2;SDS_P1;SDS_P2;PMS_P1;PMS_P2;Temp;Humidity;BMP_temperature;BMP_pressure;BME280_temperature;BME280_humidity;BME280_pressure;Samples;Min_cycle;Max_cycle;Signal;HPM_P1;HPM_P2
2022/11/25 00:02:03;;;;;;;;;;;;;;;26.88;53.37;96663.59;604988;234;66755;-66
2022/11/25 00:04:35;;;;;;;;;;;;;;;26.86;52.27;96665.80;604884;234;65199;-70
2022/11/25 00:07:00;;;;;;;;;;;;;;;26.86;51.21;96671.98;604809;234;67317;-70
2022/11/25 00:09:27;;;;;;;;;;;;;;;26.87;51.37;96667.38;604896;234;66780;-70
2022/11/25 00:11:55;;;;;;;;;;;;;;;26.85;54.66;96664.23;604907;234;65084;-70
2022/11/25 00:14:22;;;;;;;;;;;;;;;26.84;50.96;96662.63;604941;234;66928;-70
2022/11/25 00:16:50;;;;;;;;;;;;;;;26.83;52.50;96667.23;604914;234;66793;-66
2022/11/25 00:19:17;;;;;;;;;;;;;;;26.83;52.03;96672.63;604892;234;65170;-66
2022/11/25 00:21:45;;;;;;;;;;;;;;;26.82;51.32;96665.66;604924;234;64991;-66
2022/11/25 00:24:14;;;;;;;;;;;;;;;26.82;52.26;96671.05;604905;234;64887;-66
2022/11/25 00:26:42;;;;;;;;;;;;;;;26.81;52.33;96664.05;604910;234;65211;-66
2022/11/25 00:29:11;;;;;;;;;;;;;;;26.81;52.49;96663.27;604859;234;67357;-66
2022/11/25 00:31:40;;;;;;;;;;;;;;;26.81;51.39;96671.35;604876;234;64987;-66
2022/11/25 00:34:09;;;;;;;;;;;;;;;26.79;53.08;96674.35;604844;233;62839;-66
2022/11/25 00:36:37;;;;;;;;;;;;;;;26.78;52.77;96668.17;604907;234;65081;-66
2022/11/25 00:39:07;;;;;;;;;;;;;;;26.78;51.84;96668.17;604935;234;64897;-66
2022/11/25 00:44:36;;;;;;;;;;;;;;;26.77;52.55;96663.91;604933;234;67268;-65
2022/11/25 00:47:06;;;;;;;;;;;;;;;26.77;52.05;96663.91;604959;234;64272;-64
2022/11/25 00:49:34;;;;;;;;;;;;;;;26.76;53.29;96665.02;604813;234;62832;-64
2022/11/25 00:52:02;;;;;;;;;;;;;;;26.76;52.00;96666.91;604939;234;67077;-64
2022/11/25 00:54:29;;;;;;;;;;;;;;;26.74;51.79;96669.93;604886;234;65345;-64
2022/11/25 00:56:57;;;;;;;;;;;;;;;26.74;52.66;96669.14;604940;234;65039;-64
2022/11/25 00:59:24;;;;;;;;;;;;;;;26.72;52.18;96668.66;604931;234;67199;-64
2022/11/25 01:01:52;;;;;;;;;;;;;;;26.72;51.99;96674.84;604887;234;64833;-64
2022/11/25 01:04:19;;;;;;;;;;;;;;;26.71;52.66;96670.56;604903;234;62643;-64
2022/11/25 01:06:47;;;;;;;;;;;;;;;26.71;52.00;96667.05;604923;234;64847;-64
2022/11/25 01:09:15;;;;;;;;;;;;;;;26.71;52.65;96672.45;604949;234;67077;-64
2022/11/25 01:11:42;;;;;;;;;;;;;;;26.70;52.78;96662.78;604943;234;64904;-65
2022/11/25 01:14:10;;;;;;;;;;;;;;;26.69;51.89;96662.00;604911;234;67733;-64
2022/11/25 01:16:38;;;;;;;;;;;;;;;26.68;51.98;96655.03;604857;234;67023;-65
2022/11/25 01:19:07;;;;;;;;;;;;;;;26.69;52.94;96661.20;604894;234;65833;-65
2022/11/25 01:21:35;;;;;;;;;;;;;;;26.67;52.62;96656.13;604966;234;67473;-65
2022/11/25 01:24:03;;;;;;;;;;;;;;;26.66;52.57;96654.55;604900;234;67006;-65
2022/11/25 01:26:33;;;;;;;;;;;;;;;26.66;53.24;96651.06;604943;233;43355;-65
2022/11/25 01:29:02;;;;;;;;;;;;;;;26.65;52.97;96658.33;604876;234;68061;-65
2022/11/25 01:31:33;;;;;;;;;;;;;;;26.64;53.05;96653.27;604885;234;48794;-65
2022/11/25 01:34:02;;;;;;;;;;;;;;;26.64;52.41;96656.76;604885;233;64683;-65
2022/11/25 01:36:30;;;;;;;;;;;;;;;26.64;55.36;96656.76;604973;234;64961;-64
2022/11/25 01:38:59;;;;;;;;;;;;;;;26.64;53.76;96653.27;604892;234;67057;-64
2022/11/25 01:41:28;;;;;;;;;;;;;;;26.62;54.50;96656.27;604907;234;65078;-65
2022/11/25 01:44:04;;;;;;;;;;;;;;;26.61;52.62;96652.00;604907;234;64938;-65
2022/11/25 01:46:42;;;;;;;;;;;;;;;26.60;52.96;96658.52;604895;234;66915;-65
2022/11/25 01:49:14;;;;;;;;;;;;;;;26.60;54.41;96655.82;600947;234;65164;-66
2022/11/25 01:51:46;;;;;;;;;;;;;;;26.58;54.03;96649.95;604950;234;67253;-64
2022/11/25 01:54:15;;;;;;;;;;;;;;;26.58;52.81;96643.77;604925;234;67040;-64
2022/11/25 01:56:44;;;;;;;;;;;;;;;26.56;52.64;96647.55;604915;234;62773;-64
2022/11/25 01:59:12;;;;;;;;;;;;;;;26.55;52.41;96645.98;604896;234;61017;-64
2022/11/25 02:01:40;;;;;;;;;;;;;;;26.56;54.42;96646.77;600541;233;68394;-64
2022/11/25 02:04:09;;;;;;;;;;;;;;;26.55;52.69;96648.67;604930;234;64883;-64
2022/11/25 02:06:38;;;;;;;;;;;;;;;26.55;52.54;96650.58;604876;234;67300;-64
2022/11/25 02:09:06;;;;;;;;;;;;;;;26.54;53.81;96647.07;604822;234;67206;-64
2022/11/25 02:11:35;;;;;;;;;;;;;;;26.53;53.23;96648.19;604908;234;62665;-64
2022/11/25 02:14:05;;;;;;;;;;;;;;;26.53;52.79;96644.70;604941;233;46964;-64
2022/11/25 02:16:33;;;;;;;;;;;;;;;26.53;52.80;96650.09;604945;234;66867;-64
2022/11/25 02:19:02;;;;;;;;;;;;;;;26.51;53.33;96655.00;604863;234;65013;-64
2022/11/25 02:21:32;;;;;;;;;;;;;;;26.50;52.46;96651.48;604899;234;66639;-65
2022/11/25 02:24:01;;;;;;;;;;;;;;;26.51;52.82;96655.00;604862;234;64673;-64
2022/11/25 02:26:29;;;;;;;;;;;;;;;26.50;52.65;96658.78;604155;234;65923;-64
2022/11/25 02:28:56;;;;;;;;;;;;;;;26.49;53.40;96659.88;604911;234;66731;-64
2022/11/25 02:31:24;;;;;;;;;;;;;;;26.48;54.51;96664.47;604904;234;67703;-64
2022/11/25 02:33:52;;;;;;;;;;;;;;;26.48;53.96;96650.22;604840;233;63046;-64
2022/11/25 02:36:20;;;;;;;;;;;;;;;26.47;54.55;96657.52;604894;234;67426;-64
2022/11/25 02:38:53;;;;;;;;;;;;;;;26.47;53.75;96656.72;604890;234;67107;-65
2022/11/25 02:41:22;;;;;;;;;;;;;;;26.45;53.78;96659.72;604698;234;65125;-64
2022/11/25 02:43:51;;;;;;;;;;;;;;;26.45;53.65;96656.23;604906;234;44367;-65
2022/11/25 02:46:20;;;;;;;;;;;;;;;26.45;53.88;96653.55;604885;234;67505;-65
2022/11/25 02:48:48;;;;;;;;;;;;;;;26.44;53.94;96660.84;604904;234;64900;-66
2022/11/25 02:51:16;;;;;;;;;;;;;;;26.44;55.41;96657.36;604922;234;68200;-66
2022/11/25 02:53:44;;;;;;;;;;;;;;;26.43;53.92;96653.05;604883;234;67890;-65
2022/11/25 02:56:13;;;;;;;;;;;;;;;26.41;52.85;96655.27;604873;234;63288;-66
2022/11/25 02:58:41;;;;;;;;;;;;;;;26.41;52.27;96655.27;604868;234;67391;-66
2022/11/25 03:01:09;;;;;;;;;;;;;;;26.40;53.25;96651.78;604899;234;65077;-65
2022/11/25 03:03:37;;;;;;;;;;;;;;;26.39;55.18;96654.81;604906;234;63691;-66
2022/11/25 03:06:06;;;;;;;;;;;;;;;26.39;54.35;96658.30;604878;234;65738;-65
2022/11/25 03:08:34;;;;;;;;;;;;;;;26.38;52.24;96656.69;604899;234;65550;-65
2022/11/25 03:11:04;;;;;;;;;;;;;;;26.39;53.30;96654.81;604894;233;43232;-65
2022/11/25 03:13:32;;;;;;;;;;;;;;;26.37;55.40;96654.33;604896;234;67150;-66
2022/11/25 03:16:00;;;;;;;;;;;;;;;26.37;53.32;96657.02;604887;234;64285;-65
2022/11/25 03:18:28;;;;;;;;;;;;;;;26.35;53.87;96660.83;604901;234;64944;-65
2022/11/25 03:20:56;;;;;;;;;;;;;;;26.35;54.13;96668.09;604919;234;65004;-66
2022/11/25 03:23:24;;;;;;;;;;;;;;;26.35;55.87;96662.70;604904;234;67702;-66
2022/11/25 03:25:54;;;;;;;;;;;;;;;26.33;52.60;96668.42;604879;234;62468;-66
2022/11/25 03:28:22;;;;;;;;;;;;;;;26.33;54.76;96675.72;604883;234;67275;-66
2022/11/25 03:30:49;;;;;;;;;;;;;;;26.31;54.87;96667.94;604871;234;67014;-70
2022/11/25 03:33:17;;;;;;;;;;;;;;;26.30;54.50;96666.36;603882;233;63049;-70
2022/11/25 03:35:45;;;;;;;;;;;;;;;26.30;54.35;96663.67;600770;233;64491;-72
2022/11/25 03:38:12;;;;;;;;;;;;;;;26.29;54.17;96675.53;600912;236;67254;-69
2022/11/25 03:40:40;;;;;;;;;;;;;;;26.28;54.73;96679.34;600892;236;65893;-69
2022/11/25 03:43:08;;;;;;;;;;;;;;;26.28;55.50;96681.25;601181;236;64307;-69
2022/11/25 03:45:36;;;;;;;;;;;;;;;26.28;55.66;96686.64;601173;236;64880;-69
2022/11/25 03:48:05;;;;;;;;;;;;;;;26.25;51.87;96689.96;601174;236;64980;-69
2022/11/25 03:50:34;;;;;;;;;;;;;;;26.26;50.64;96691.54;601133;235;47309;-69
2022/11/25 03:53:02;;;;;;;;;;;;;;;26.23;51.29;96692.95;601142;236;67071;-69
2022/11/25 03:55:31;;;;;;;;;;;;;;;26.25;55.30;96695.34;601190;236;62522;-69
2022/11/25 03:58:00;;;;;;;;;;;;;;;26.23;53.93;96698.34;601144;236;67148;-69
2022/11/25 04:00:29;;;;;;;;;;;;;;;26.22;54.12;96696.77;601168;236;67236;-69
2022/11/25 04:02:58;;;;;;;;;;;;;;;26.20;52.51;96704.36;601253;235;43652;-69
2022/11/25 04:05:26;;;;;;;;;;;;;;;26.20;52.27;96701.66;601204;236;66920;-69
2022/11/25 04:07:54;;;;;;;;;;;;;;;26.18;54.96;96708.47;601222;236;66689;-69
2022/11/25 04:10:22;;;;;;;;;;;;;;;26.16;51.33;96711.45;601185;236;65256;-69
2022/11/25 04:12:51;;;;;;;;;;;;;;;26.17;55.08;96710.38;596320;235;68366;-69
2022/11/25 04:15:23;;;;;;;;;;;;;;;26.17;54.23;96709.59;601085;236;45444;-69
2022/11/25 04:17:52;;;;;;;;;;;;;;;26.15;54.37;96709.09;601244;235;43640;-69
2022/11/25 04:20:20;;;;;;;;;;;;;;;26.15;54.29;96717.17;601180;236;66892;-69
2022/11/25 04:22:49;;;;;;;;;;;;;;;26.14;53.88;96721.77;601107;235;45112;-69
2022/11/25 04:25:17;;;;;;;;;;;;;;;26.14;55.31;96729.85;601217;236;66046;-69
2022/11/25 04:27:45;;;;;;;;;;;;;;;26.12;54.43;96726.67;601172;236;64458;-69
2022/11/25 04:30:14;;;;;;;;;;;;;;;26.12;53.14;96729.36;601202;236;67226;-69
2022/11/25 04:32:43;;;;;;;;;;;;;;;26.10;53.94;96735.05;601099;235;65909;-68
2022/11/25 04:35:11;;;;;;;;;;;;;;;26.10;54.63;96728.87;601139;236;64589;-68
2022/11/25 04:37:39;;;;;;;;;;;;;;;26.09;54.10;96729.98;601131;236;67738;-68
2022/11/25 04:40:07;;;;;;;;;;;;;;;26.08;53.21;96734.59;601187;236;65034;-68
2022/11/25 04:42:36;;;;;;;;;;;;;;;26.07;51.18;96740.27;601200;236;68085;-68
2022/11/25 04:45:08;;;;;;;;;;;;;;;26.07;52.86;96732.19;601171;236;67528;-70
2022/11/25 04:47:37;;;;;;;;;;;;;;;26.06;50.37;96749.46;601177;236;62961;-69
2022/11/25 04:50:05;;;;;;;;;;;;;;;26.06;53.25;96752.16;601168;236;67238;-69
2022/11/25 04:52:35;;;;;;;;;;;;;;;26.04;52.74;96752.45;601165;235;44801;-69
2022/11/25 04:55:02;;;;;;;;;;;;;;;26.04;56.26;96754.36;601184;236;64874;-69
2022/11/25 04:57:30;;;;;;;;;;;;;;;26.04;53.94;96759.73;601154;236;65576;-69
2022/11/25 04:59:57;;;;;;;;;;;;;;;26.03;56.02;96758.95;601190;236;67036;-69
2022/11/25 05:02:26;;;;;;;;;;;;;;;26.02;56.18;96751.95;601147;236;64834;-69
2022/11/25 05:04:56;;;;;;;;;;;;;;;26.01;56.71;96758.46;601104;235;44094;-69
2022/11/25 05:07:25;;;;;;;;;;;;;;;26.00;53.01;96762.27;601175;236;67530;-70
2022/11/25 05:09:54;;;;;;;;;;;;;;;26.00;52.51;96769.53;601189;236;62723;-69
2022/11/25 05:12:25;;;;;;;;;;;;;;;25.99;54.66;96773.33;600837;235;44552;-69
2022/11/25 05:14:53;;;;;;;;;;;;;;;25.98;51.59;96771.76;601165;236;66973;-69
2022/11/25 05:17:22;;;;;;;;;;;;;;;25.97;52.15;96780.92;601142;236;63741;-69
2022/11/25 05:19:50;;;;;;;;;;;;;;;25.97;50.77;96779.02;601123;236;67859;-69
2022/11/25 05:22:25;;;;;;;;;;;;;;;25.96;50.78;96784.73;601163;236;65043;-69
2022/11/25 05:24:53;;;;;;;;;;;;;;;25.96;53.38;96784.73;601236;236;63002;-69
2022/11/25 05:27:23;;;;;;;;;;;;;;;25.96;51.72;96787.41;601142;236;67297;-68
2022/11/25 05:29:51;;;;;;;;;;;;;;;25.96;53.83;96792.80;601198;236;65218;-68
2022/11/25 05:32:19;;;;;;;;;;;;;;;25.96;55.66;96798.19;596348;235;66477;-68
2022/11/25 05:34:46;;;;;;;;;;;;;;;25.95;54.92;96810.07;601185;236;67228;-68
2022/11/25 05:37:14;;;;;;;;;;;;;;;25.95;55.88;96807.37;601245;236;65821;-68
2022/11/25 05:39:43;;;;;;;;;;;;;;;25.93;51.40;96804.98;601048;235;42235;-69
2022/11/25 05:42:24;;;;;;;;;;;;;;;25.94;51.82;96819.23;600798;235;45746;-69
2022/11/25 05:44:52;;;;;;;;;;;;;;;25.94;54.80;96820.02;601226;236;64452;-69
2022/11/25 05:47:20;;;;;;;;;;;;;;;25.95;52.79;96827.02;601134;236;65763;-69
2022/11/25 05:49:48;;;;;;;;;;;;;;;25.96;53.83;96835.88;601262;236;65118;-69
2022/11/25 05:52:16;;;;;;;;;;;;;;;25.95;54.44;96831.61;601154;236;67941;-69
2022/11/25 05:54:45;;;;;;;;;;;;;;;25.95;51.11;96842.38;601018;235;43663;-69
2022/11/25 05:57:12;;;;;;;;;;;;;;;25.96;50.68;96849.34;601193;236;67242;-69
2022/11/25 05:59:42;;;;;;;;;;;;;;;25.97;51.44;96857.09;600853;235;48141;-69
2022/11/25 06:02:11;;;;;;;;;;;;;;;25.99;52.49;96856.80;600845;235;47490;-69
2022/11/25 06:04:40;;;;;;;;;;;;;;;25.99;53.45;96862.19;601185;236;64551;-69
2022/11/25 06:07:08;;;;;;;;;;;;;;;26.00;52.64;96856.51;601173;236;67448;-69
2022/11/25 06:09:36;;;;;;;;;;;;;;;26.01;51.97;96868.86;601218;236;64954;-69
2022/11/25 06:12:03;;;;;;;;;;;;;;;26.02;53.60;96869.65;601207;236;64661;-69
2022/11/25 06:14:31;;;;;;;;;;;;;;;26.02;53.21;96872.34;601207;236;67003;-69
2022/11/25 06:16:59;;;;;;;;;;;;;;;26.03;50.65;96876.64;601171;236;65289;-69
2022/11/25 06:19:34;;;;;;;;;;;;;;;26.05;53.09;96877.11;601129;235;44643;-68
2022/11/25 06:22:02;;;;;;;;;;;;;;;26.06;53.22;96881.41;601175;236;67381;-69
2022/11/25 06:24:30;;;;;;;;;;;;;;;26.07;52.88;96891.07;601200;236;65033;-69
2022/11/25 06:27:00;;;;;;;;;;;;;;;26.08;53.50;96889.95;601077;236;45307;-68
2022/11/25 06:29:28;;;;;;;;;;;;;;;26.09;53.23;96892.36;601209;236;67118;-69
2022/11/25 06:31:56;;;;;;;;;;;;;;;26.10;53.88;96893.94;601181;236;64840;-69
2022/11/25 06:34:25;;;;;;;;;;;;;;;26.11;54.79;96900.93;602165;234;47047;-66
2022/11/25 06:36:53;;;;;;;;;;;;;;;26.13;52.25;96901.40;604790;234;67051;-66
2022/11/25 06:39:20;;;;;;;;;;;;;;;26.15;53.50;96911.88;604792;234;65101;-65
2022/11/25 06:41:48;;;;;;;;;;;;;;;26.17;54.44;96911.58;604830;234;67297;-65
2022/11/25 06:44:15;;;;;;;;;;;;;;;26.19;54.60;96915.56;604817;234;67118;-65
2022/11/25 06:46:43;;;;;;;;;;;;;;;26.20;52.16;96917.14;604807;234;65189;-65
2022/11/25 06:49:11;;;;;;;;;;;;;;;26.23;53.36;96916.52;604804;234;65015;-67
2022/11/25 06:51:39;;;;;;;;;;;;;;;26.26;53.47;96921.30;604769;234;67245;-64
2022/11/25 06:54:07;;;;;;;;;;;;;;;26.27;53.78;96930.16;604825;234;62878;-64
2022/11/25 06:56:35;;;;;;;;;;;;;;;26.28;53.00;96929.87;604717;234;67075;-65
2022/11/25 06:59:02;;;;;;;;;;;;;;;26.32;53.37;96935.43;604812;234;66902;-67
2022/11/25 07:01:30;;;;;;;;;;;;;;;26.33;53.55;96939.73;604117;234;65148;-67
2022/11/25 07:04:03;;;;;;;;;;;;;;;26.34;51.59;96941.31;604736;234;67293;-67
2022/11/25 07:06:31;;;;;;;;;;;;;;;26.33;55.64;96939.73;602792;232;67232;-66
2022/11/25 07:08:59;;;;;;;;;;;;;;;26.32;54.76;96944.30;601937;235;62883;-64
2022/11/25 07:11:27;;;;;;;;;;;;;;;26.33;56.24;96950.51;602021;235;64885;-64
2022/11/25 07:13:56;;;;;;;;;;;;;;;26.32;53.75;96943.52;602042;235;67110;-65
2022/11/25 07:16:24;;;;;;;;;;;;;;;26.33;53.51;96945.13;601981;235;65124;-65
2022/11/25 07:18:51;;;;;;;;;;;;;;;26.30;53.06;96946.53;602006;235;67307;-66
2022/11/25 07:21:23;;;;;;;;;;;;;;;26.34;54.29;96946.70;602122;235;67017;-64
2022/11/25 07:23:52;;;;;;;;;;;;;;;26.35;54.94;96951.80;602024;235;62765;-64
2022/11/25 07:26:21;;;;;;;;;;;;;;;26.37;53.76;96961.45;602044;235;64673;-65
2022/11/25 07:28:49;;;;;;;;;;;;;;;26.37;53.93;96959.55;603307;231;66896;-64
2022/11/25 07:31:19;;;;;;;;;;;;;;;26.38;54.04;96961.14;604701;234;65140;-64
2022/11/25 07:33:47;;;;;;;;;;;;;;;26.42;52.69;96964.03;602472;234;67494;-67
2022/11/25 07:36:14;;;;;;;;;;;;;;;26.42;53.88;96959.43;601109;236;67074;-69
2022/11/25 07:38:42;;;;;;;;;;;;;;;26.41;52.50;96963.23;601085;236;65085;-68
2022/11/25 07:41:11;;;;;;;;;;;;;;;26.42;52.33;96972.91;601128;236;67272;-70
2022/11/25 07:43:39;;;;;;;;;;;;;;;26.45;53.67;96979.58;601100;236;64985;-70
2022/11/25 07:46:17;;;;;;;;;;;;;;;26.44;53.64;96984.18;601081;236;63034;-70
2022/11/25 07:48:45;;;;;;;;;;;;;;;26.45;53.08;96979.58;601176;236;67249;-70
2022/11/25 07:51:26;;;;;;;;;;;;;;;26.45;53.24;96982.27;600427;234;67177;-70
2022/11/25 07:53:55;;;;;;;;;;;;;;;26.45;52.18;96990.36;599576;236;63061;-70
2022/11/25 07:56:22;;;;;;;;;;;;;;;26.46;50.52;96997.33;599540;236;67381;-71
2022/11/25 07:58:50;;;;;;;;;;;;;;;26.46;51.64;96990.03;599507;236;67054;-70
2022/11/25 08:01:18;;;;;;;;;;;;;;;26.46;51.71;96994.63;599599;236;65069;-70
2022/11/25 08:03:47;;;;;;;;;;;;;;;26.46;52.65;97000.02;599649;236;67366;-71
2022/11/25 08:06:16;;;;;;;;;;;;;;;26.46;51.98;97011.59;599506;236;67237;-70
2022/11/25 08:08:43;;;;;;;;;;;;;;;26.44;52.23;97008.43;599516;236;65065;-70
2022/11/25 08:11:12;;;;;;;;;;;;;;;26.47;53.33;97012.41;599516;236;67251;-70
2022/11/25 08:13:40;;;;;;;;;;;;;;;26.47;51.14;97012.41;599549;236;66425;-70
2022/11/25 08:16:08;;;;;;;;;;;;;;;26.48;52.77;97022.08;599606;236;63850;-70
2022/11/25 08:18:35;;;;;;;;;;;;;;;26.48;52.13;97022.08;599512;235;64643;-71
2022/11/25 08:21:05;;;;;;;;;;;;;;;26.48;52.08;97025.56;599554;236;67146;-70
2022/11/25 08:23:34;;;;;;;;;;;;;;;26.48;52.51;97022.87;599596;236;46201;-71
2022/11/25 08:26:10;;;;;;;;;;;;;;;26.49;53.85;97029.87;599555;235;67005;-70
2022/11/25 08:28:38;;;;;;;;;;;;;;;26.49;53.07;97029.05;599588;236;66814;-70
2022/11/25 08:31:07;;;;;;;;;;;;;;;26.49;51.38;97032.56;599568;236;62979;-67
2022/11/25 08:33:34;;;;;;;;;;;;;;;26.53;51.25;97030.86;599799;236;67116;-70
2022/11/25 08:36:02;;;;;;;;;;;;;;;26.54;51.48;97031.66;600057;236;67367;-71
2022/11/25 08:38:29;;;;;;;;;;;;;;;26.54;53.12;97034.35;600837;235;65033;-70
2022/11/25 08:40:57;;;;;;;;;;;;;;;26.55;53.09;97035.95;596548;238;66881;-70
2022/11/25 08:43:25;;;;;;;;;;;;;;;26.56;52.24;97029.45;596646;237;67017;-71
2022/11/25 08:45:53;;;;;;;;;;;;;;;26.56;52.71;97032.16;596577;237;65054;-69
2022/11/25 08:48:21;;;;;;;;;;;;;;;26.58;48.22;97035.34;596509;237;67476;-69
2022/11/25 08:50:50;;;;;;;;;;;;;;;26.61;45.29;97033.94;596571;237;67849;-70
2022/11/25 08:53:18;;;;;;;;;;;;;;;26.63;48.94;97029.02;596639;238;65054;-71
2022/11/25 08:55:45;;;;;;;;;;;;;;;26.63;50.02;97031.70;596598;238;65104;-71
2022/11/25 08:58:13;;;;;;;;;;;;;;;26.62;51.70;97032.82;596663;237;66900;-70
2022/11/25 09:00:41;;;;;;;;;;;;;;;26.60;52.93;97033.14;596543;237;62719;-71
2022/11/25 09:03:08;;;;;;;;;;;;;;;26.59;52.12;97031.53;596561;237;64944;-71
2022/11/25 09:05:37;;;;;;;;;;;;;;;26.59;50.52;97023.45;596541;237;64880;-71
2022/11/25 09:08:05;;;;;;;;;;;;;;;26.60;50.34;97025.06;596627;238;62986;-70
2022/11/25 09:10:33;;;;;;;;;;;;;;;26.62;49.48;97027.43;596503;237;65154;-71
2022/11/25 09:13:01;;;;;;;;;;;;;;;26.62;50.05;97025.52;596580;237;65004;-67
2022/11/25 09:15:28;;;;;;;;;;;;;;;26.63;50.35;97024.44;596636;237;62917;-71
2022/11/25 09:18:00;;;;;;;;;;;;;;;26.63;50.36;97029.83;596559;238;65047;-70
2022/11/25 09:20:27;;;;;;;;;;;;;;;26.64;48.61;97026.02;596583;237;67089;-70
2022/11/25 09:22:55;;;;;;;;;;;;;;;26.66;50.80;97020.34;596652;238;65120;-70
2022/11/25 09:25:22;;;;;;;;;;;;;;;26.67;49.89;97027.30;596618;237;67205;-70
2022/11/25 09:27:50;;;;;;;;;;;;;;;26.68;50.29;97026.20;596665;237;66740;-71
2022/11/25 09:30:17;;;;;;;;;;;;;;;26.67;49.78;97020.02;596560;237;64989;-70
2022/11/25 09:32:51;;;;;;;;;;;;;;;26.68;50.27;97023.50;596632;237;46939;-70
2022/11/25 09:35:18;;;;;;;;;;;;;;;26.68;51.76;97018.11;596723;238;65312;-70
2022/11/25 09:37:46;;;;;;;;;;;;;;;26.68;51.95;97015.41;596669;238;63119;-71
2022/11/25 09:40:18;;;;;;;;;;;;;;;26.68;50.81;97018.92;596670;238;65046;-67
2022/11/25 09:48:45;;;;;;;;;;;;;;;26.69;50.12;97023.20;596618;238;65286;-64
2022/11/25 09:51:17;;;;;;;;;;;;;;;26.69;51.36;97012.42;596611;238;65025;-64
2022/11/25 09:53:49;;;;;;;;;;;;;;;26.69;50.92;97020.50;596756;238;65215;-66
2022/11/25 09:56:21;;;;;;;;;;;;;;;26.68;52.54;97010.84;596671;237;66803;-64
2022/11/25 09:58:50;;;;;;;;;;;;;;;26.69;50.95;97019.72;594883;238;64990;-64
2022/11/25 10:01:23;;;;;;;;;;;;;;;26.68;50.99;97010.84;596520;238;63123;-67
2022/11/25 10:03:55;;;;;;;;;;;;;;;26.68;50.04;97013.53;596643;238;67362;-67
2022/11/25 10:06:25;;;;;;;;;;;;;;;26.67;50.88;97009.23;596274;237;67094;-66
2022/11/25 10:08:54;;;;;;;;;;;;;;;26.67;49.17;96997.66;596486;237;65156;-64
2022/11/25 10:11:23;;;;;;;;;;;;;;;26.66;49.66;97002.26;596680;238;67354;-65
2022/11/25 10:14:01;;;;;;;;;;;;;;;26.65;50.01;97003.34;596646;238;67039;-65
2022/11/25 10:16:30;;;;;;;;;;;;;;;26.65;50.61;96994.47;596659;238;65080;-65
2022/11/25 10:19:03;;;;;;;;;;;;;;;26.63;51.27;96992.09;596735;238;60810;-65
2022/11/25 10:21:31;;;;;;;;;;;;;;;26.64;47.54;97003.67;596623;238;63236;-64
2022/11/25 10:23:58;;;;;;;;;;;;;;;26.64;50.94;97003.67;596719;238;64892;-65
2022/11/25 10:26:27;;;;;;;;;;;;;;;26.62;51.91;96995.88;596598;238;67302;-66
2022/11/25 10:28:56;;;;;;;;;;;;;;;26.62;50.86;96993.18;596525;238;67106;-65
2022/11/25 10:31:27;;;;;;;;;;;;;;;26.61;51.44;96994.30;596554;238;46327;-65
2022/11/25 10:33:57;;;;;;;;;;;;;;;26.61;49.25;96999.69;597020;237;64763;-65
2022/11/25 10:36:29;;;;;;;;;;;;;;;26.62;50.24;96998.57;597494;237;67038;-66
2022/11/25 10:38:58;;;;;;;;;;;;;;;26.62;50.39;96995.88;595662;237;65165;-65
2022/11/25 10:41:27;;;;;;;;;;;;;;;26.62;52.10;96995.88;597446;237;67490;-64
2022/11/25 10:43:56;;;;;;;;;;;;;;;26.64;45.99;97000.97;597340;237;46309;-65
2022/11/25 10:46:26;;;;;;;;;;;;;;;26.68;48.94;96996.55;597508;237;62751;-64
2022/11/25 10:48:54;;;;;;;;;;;;;;;26.69;48.88;96993.55;597503;237;64963;-64
2022/11/25 10:51:40;;;;;;;;;;;;;;;26.69;50.27;96988.16;597359;237;67376;-64
2022/11/25 10:54:10;;;;;;;;;;;;;;;26.71;49.08;97001.31;597575;237;64912;-64
2022/11/25 10:56:44;;;;;;;;;;;;;;;26.73;49.40;96996.42;597046;237;64949;-64
2022/11/25 10:59:16;;;;;;;;;;;;;;;26.73;49.50;97001.80;597536;237;66993;-63
2022/11/25 11:01:44;;;;;;;;;;;;;;;26.73;50.84;97002.59;597174;237;65028;-63
2022/11/25 11:04:17;;;;;;;;;;;;;;;26.74;51.74;97004.20;597451;237;67059;-64
2022/11/25 11:06:45;;;;;;;;;;;;;;;26.74;50.37;96998.81;597525;237;67202;-63
2022/11/25 11:09:33;;;;;;;;;;;;;;;26.74;50.67;97004.20;597584;237;64907;-64
2022/11/25 11:12:01;;;;;;;;;;;;;;;26.74;48.51;96998.81;597480;237;64666;-67
2022/11/25 11:14:29;;;;;;;;;;;;;;;26.76;47.20;96996.61;596921;237;64942;-67
2022/11/25 11:16:58;;;;;;;;;;;;;;;26.76;50.87;97002.00;597462;237;65178;-67
2022/11/25 11:19:30;;;;;;;;;;;;;;;26.77;50.71;97008.19;597514;237;67593;-67
2022/11/25 11:21:59;;;;;;;;;;;;;;;26.77;47.43;97003.59;597539;237;67034;-67
2022/11/25 11:24:36;;;;;;;;;;;;;;;26.78;49.50;96999.77;596702;237;64994;-68
2022/11/25 11:27:06;;;;;;;;;;;;;;;26.79;47.69;96995.99;597470;237;67292;-65
2022/11/25 11:29:34;;;;;;;;;;;;;;;26.77;49.59;97000.89;597432;237;69124;-66
2022/11/25 11:32:03;;;;;;;;;;;;;;;26.78;51.42;97002.47;597427;237;65022;-67
2022/11/25 11:34:42;;;;;;;;;;;;;;;26.77;50.78;96998.20;588535;239;67273;-66
2022/11/25 11:37:11;;;;;;;;;;;;;;;26.78;51.00;96998.98;588542;239;67123;-67
2022/11/25 11:39:43;;;;;;;;;;;;;;;26.77;49.56;96998.20;588914;239;65149;-67
2022/11/25 11:42:13;;;;;;;;;;;;;;;26.76;51.09;96996.61;588780;239;64930;-67
2022/11/25 11:44:59;;;;;;;;;;;;;;;26.76;50.79;96991.22;588853;239;67048;-65
2022/11/25 11:47:28;;;;;;;;;;;;;;;26.74;48.85;96988.03;588756;239;64928;-66
2022/11/25 11:50:00;;;;;;;;;;;;;;;26.72;50.09;96978.66;588807;238;67271;-66
2022/11/25 11:52:31;;;;;;;;;;;;;;;26.71;49.81;96993.22;588778;239;64937;-66
2022/11/25 11:55:01;;;;;;;;;;;;;;;26.67;50.21;96987.66;588809;238;65023;-66
2022/11/25 11:57:36;;;;;;;;;;;;;;;26.66;51.60;96988.78;588468;239;67241;-66
2022/11/25 12:00:08;;;;;;;;;;;;;;;26.65;50.62;96979.08;588854;239;64447;-66
2022/11/25 12:03:01;;;;;;;;;;;;;;;26.64;51.35;96971.33;588558;239;65164;-65
2022/11/25 12:05:30;;;;;;;;;;;;;;;26.62;48.31;96984.30;588922;239;67723;-66
2022/11/25 12:08:05;;;;;;;;;;;;;;;26.63;50.58;96981.31;588798;239;68184;-65
2022/11/25 12:10:35;;;;;;;;;;;;;;;26.61;51.25;96978.13;585769;239;62918;-65
2022/11/25 12:13:06;;;;;;;;;;;;;;;26.61;51.02;96988.91;588868;239;67144;-65
2022/11/25 12:15:41;;;;;;;;;;;;;;;26.60;51.17;96992.72;588823;238;67602;-65
2022/11/25 12:18:18;;;;;;;;;;;;;;;26.60;49.54;96986.50;588705;238;64916;-68
2022/11/25 12:20:50;;;;;;;;;;;;;;;26.59;46.95;96991.11;588695;239;65004;-63
2022/11/25 12:23:28;;;;;;;;;;;;;;;26.63;48.47;96985.89;588712;239;66623;-66
2022/11/25 12:25:59;;;;;;;;;;;;;;;26.67;48.44;96992.27;588764;239;65117;-67
2022/11/25 12:28:31;;;;;;;;;;;;;;;26.67;48.37;96987.66;588474;239;66762;-67
2022/11/25 12:31:00;;;;;;;;;;;;;;;26.69;50.35;96990.86;588784;238;65398;-67
2022/11/25 12:33:32;;;;;;;;;;;;;;;26.69;49.60;96985.46;588461;238;64999;-67
2022/11/25 12:36:03;;;;;;;;;;;;;;;26.71;51.40;96983.27;590961;237;67305;-67
2022/11/25 12:38:47;;;;;;;;;;;;;;;26.71;47.66;96982.44;596116;237;64550;-67
2022/11/25 12:41:35;;;;;;;;;;;;;;;26.72;50.64;96990.23;596088;237;65026;-66
2022/11/25 12:44:04;;;;;;;;;;;;;;;26.72;50.20;96984.05;595972;237;66881;-65
2022/11/25 12:46:33;;;;;;;;;;;;;;;26.71;50.34;96988.66;596196;238;64796;-66
2022/11/25 12:49:01;;;;;;;;;;;;;;;26.72;50.60;96986.75;596177;238;65201;-66
2022/11/25 12:51:36;;;;;;;;;;;;;;;26.72;50.56;96990.23;596077;238;67223;-66
2022/11/25 12:54:09;;;;;;;;;;;;;;;26.73;49.74;96991.81;595593;238;64893;-66
2022/11/25 12:56:44;;;;;;;;;;;;;;;26.73;49.79;96988.33;596122;238;65292;-68
2022/11/25 12:59:29;;;;;;;;;;;;;;;26.72;49.71;96992.93;596157;238;65112;-67
2022/11/25 13:02:03;;;;;;;;;;;;;;;26.72;48.73;96986.75;578397;244;65210;-67
2022/11/25 13:04:31;;;;;;;;;;;;;;;26.72;51.25;97003.72;591103;237;65274;-67
2022/11/25 13:07:04;;;;;;;;;;;;;;;26.73;50.85;97009.89;596113;238;67230;-69
2022/11/25 13:09:49;;;;;;;;;;;;;;;26.72;48.67;97009.11;596166;238;67088;-70